sensor_id;sensor_type;location;lat;lon;timestamp;temperature;humidity
13798;DHT22;6970;51.340;3.240;2023-12-07T00:00:37;3.20;99.90
13798;DHT22;6970;51.340;3.240;2023-12-07T00:03:04;3.10;99.90
13798;DHT22;6970;51.340;3.240;2023-12-07T00:05:37;3.10;99.90
13798;DHT22;6970;51.340;3.240;2023-12-07T00:08:10;3.10;99.90
13798;DHT22;6970;51.340;3.240;2023-12-07T00:10:38;3.10;99.90
13798;DHT22;6970;51.340;3.240;2023-12-07T00:13:07;3.10;99.90
13798;DHT22;6970;51.340;3.240;2023-12-07T00:15:34;3.10;99.90
13798;DHT22;6970;51.340;3.240;2023-12-07T00:18:02;3.10;99.90
13798;DHT22;6970;51.340;3.240;2023-12-07T00:20:37;3.10;99.90
13798;DHT22;6970;51.340;3.240;2023-12-07T00:23:04;3.10;99.90
13798;DHT22;6970;51.340;3.240;2023-12-07T00:25:31;3.10;99.90
13798;DHT22;6970;51.340;3.240;2023-12-07T00:28:01;3.00;99.90
13798;DHT22;6970;51.340;3.240;2023-12-07T00:30:31;3.00;99.90
13798;DHT22;6970;51.340;3.240;2023-12-07T00:33:03;3.00;99.90
13798;DHT22;6970;51.340;3.240;2023-12-07T00:35:33;2.90;99.90
13798;DHT22;6970;51.340;3.240;2023-12-07T00:38:02;2.90;99.90
13798;DHT22;6970;51.340;3.240;2023-12-07T00:40:29;2.90;99.90
13798;DHT22;6970;51.340;3.240;2023-12-07T00:42:57;2.80;99.90
13798;DHT22;6970;51.340;3.240;2023-12-07T00:45:27;2.80;99.90
13798;DHT22;6970;51.340;3.240;2023-12-07T00:47:54;2.60;99.90
13798;DHT22;6970;51.340;3.240;2023-12-07T00:50:24;2.50;99.90
13798;DHT22;6970;51.340;3.240;2023-12-07T00:52:51;2.50;99.90
13798;DHT22;6970;51.340;3.240;2023-12-07T00:55:21;2.50;99.90
13798;DHT22;6970;51.340;3.240;2023-12-07T00:57:50;2.40;99.90
13798;DHT22;6970;51.340;3.240;2023-12-07T01:00:19;2.40;99.90
13798;DHT22;6970;51.340;3.240;2023-12-07T01:02:50;2.30;99.90
13798;DHT22;6970;51.340;3.240;2023-12-07T01:05:19;2.20;99.90
13798;DHT22;6970;51.340;3.240;2023-12-07T01:07:46;2.20;99.90
13798;DHT22;6970;51.340;3.240;2023-12-07T01:10:16;2.10;99.90
13798;DHT22;6970;51.340;3.240;2023-12-07T01:12:43;2.10;99.90
13798;DHT22;6970;51.340;3.240;2023-12-07T01:15:11;2.00;99.90
13798;DHT22;6970;51.340;3.240;2023-12-07T01:17:41;1.90;99.90
13798;DHT22;6970;51.340;3.240;2023-12-07T01:20:10;1.80;99.90
13798;DHT22;6970;51.340;3.240;2023-12-07T01:22:40;1.80;99.90
13798;DHT22;6970;51.340;3.240;2023-12-07T01:25:10;1.70;99.90
13798;DHT22;6970;51.340;3.240;2023-12-07T01:27:37;1.70;99.90
13798;DHT22;6970;51.340;3.240;2023-12-07T01:30:11;1.70;99.90
13798;DHT22;6970;51.340;3.240;2023-12-07T01:32:41;1.70;99.90
13798;DHT22;6970;51.340;3.240;2023-12-07T01:35:09;1.70;99.90
13798;DHT22;6970;51.340;3.240;2023-12-07T01:37:39;1.60;99.90
13798;DHT22;6970;51.340;3.240;2023-12-07T01:40:07;1.60;99.90
13798;DHT22;6970;51.340;3.240;2023-12-07T01:42:38;1.60;99.90
13798;DHT22;6970;51.340;3.240;2023-12-07T01:45:06;1.60;99.90
13798;DHT22;6970;51.340;3.240;2023-12-07T01:47:37;1.60;99.90
13798;DHT22;6970;51.340;3.240;2023-12-07T01:50:06;1.60;99.90
13798;DHT22;6970;51.340;3.240;2023-12-07T01:52:38;1.60;99.90
13798;DHT22;6970;51.340;3.240;2023-12-07T01:55:09;1.60;99.90
13798;DHT22;6970;51.340;3.240;2023-12-07T01:57:37;1.50;99.90
13798;DHT22;6970;51.340;3.240;2023-12-07T02:00:07;1.60;99.90
13798;DHT22;6970;51.340;3.240;2023-12-07T02:02:40;1.50;99.90
13798;DHT22;6970;51.340;3.240;2023-12-07T02:05:08;1.60;99.90
13798;DHT22;6970;51.340;3.240;2023-12-07T02:07:36;1.60;99.90
13798;DHT22;6970;51.340;3.240;2023-12-07T02:10:03;1.50;99.90
13798;DHT22;6970;51.340;3.240;2023-12-07T02:12:37;1.50;99.90
13798;DHT22;6970;51.340;3.240;2023-12-07T02:15:04;1.50;99.90
13798;DHT22;6970;51.340;3.240;2023-12-07T02:20:24;1.50;99.90
13798;DHT22;6970;51.340;3.240;2023-12-07T02:23:01;1.50;99.90
13798;DHT22;6970;51.340;3.240;2023-12-07T02:25:56;1.50;99.90
13798;DHT22;6970;51.340;3.240;2023-12-07T02:28:27;1.60;99.90
13798;DHT22;6970;51.340;3.240;2023-12-07T02:30:55;1.60;99.90
13798;DHT22;6970;51.340;3.240;2023-12-07T02:33:26;1.60;99.90
13798;DHT22;6970;51.340;3.240;2023-12-07T02:35:53;1.70;99.90
13798;DHT22;6970;51.340;3.240;2023-12-07T02:38:26;1.70;99.90
13798;DHT22;6970;51.340;3.240;2023-12-07T02:40:56;1.70;99.90
13798;DHT22;6970;51.340;3.240;2023-12-07T02:43:27;1.80;99.90
13798;DHT22;6970;51.340;3.240;2023-12-07T02:45:55;1.80;99.90
13798;DHT22;6970;51.340;3.240;2023-12-07T02:48:25;1.80;99.90
13798;DHT22;6970;51.340;3.240;2023-12-07T02:50:56;1.80;99.90
13798;DHT22;6970;51.340;3.240;2023-12-07T02:53:29;1.90;99.90
13798;DHT22;6970;51.340;3.240;2023-12-07T02:55:58;1.90;99.90
13798;DHT22;6970;51.340;3.240;2023-12-07T02:58:25;1.90;99.90
13798;DHT22;6970;51.340;3.240;2023-12-07T03:00:55;1.90;99.90
13798;DHT22;6970;51.340;3.240;2023-12-07T03:03:23;1.90;99.90
13798;DHT22;6970;51.340;3.240;2023-12-07T03:05:53;2.00;99.90
13798;DHT22;6970;51.340;3.240;2023-12-07T03:08:23;2.00;99.90
13798;DHT22;6970;51.340;3.240;2023-12-07T03:10:56;2.00;99.90
13798;DHT22;6970;51.340;3.240;2023-12-07T03:13:25;2.10;99.90
13798;DHT22;6970;51.340;3.240;2023-12-07T03:15:53;2.10;99.90
13798;DHT22;6970;51.340;3.240;2023-12-07T03:18:24;2.10;99.90
13798;DHT22;6970;51.340;3.240;2023-12-07T03:20:54;2.10;99.90
13798;DHT22;6970;51.340;3.240;2023-12-07T03:23:21;2.10;99.90
13798;DHT22;6970;51.340;3.240;2023-12-07T03:25:51;2.20;99.90
13798;DHT22;6970;51.340;3.240;2023-12-07T03:28:18;2.20;99.90
13798;DHT22;6970;51.340;3.240;2023-12-07T03:30:45;2.20;99.90
13798;DHT22;6970;51.340;3.240;2023-12-07T03:33:13;2.20;99.90
13798;DHT22;6970;51.340;3.240;2023-12-07T03:35:47;2.20;99.90
13798;DHT22;6970;51.340;3.240;2023-12-07T03:38:16;2.30;99.90
13798;DHT22;6970;51.340;3.240;2023-12-07T03:40:46;2.30;99.90
13798;DHT22;6970;51.340;3.240;2023-12-07T03:43:19;2.30;99.90
13798;DHT22;6970;51.340;3.240;2023-12-07T03:45:48;2.30;99.90
13798;DHT22;6970;51.340;3.240;2023-12-07T03:48:19;2.30;99.90
13798;DHT22;6970;51.340;3.240;2023-12-07T03:50:49;2.30;99.90
13798;DHT22;6970;51.340;3.240;2023-12-07T03:53:18;2.30;99.90
13798;DHT22;6970;51.340;3.240;2023-12-07T03:55:48;2.40;99.90
13798;DHT22;6970;51.340;3.240;2023-12-07T03:58:18;2.40;99.90
13798;DHT22;6970;51.340;3.240;2023-12-07T04:00:47;2.40;99.90
13798;DHT22;6970;51.340;3.240;2023-12-07T04:03:15;2.50;99.90
13798;DHT22;6970;51.340;3.240;2023-12-07T04:05:43;2.50;99.90
13798;DHT22;6970;51.340;3.240;2023-12-07T04:08:10;2.60;99.90
13798;DHT22;6970;51.340;3.240;2023-12-07T04:10:40;2.60;99.90
13798;DHT22;6970;51.340;3.240;2023-12-07T04:13:07;2.60;99.90
13798;DHT22;6970;51.340;3.240;2023-12-07T04:15:35;2.60;99.90
13798;DHT22;6970;51.340;3.240;2023-12-07T04:18:08;2.60;99.90
13798;DHT22;6970;51.340;3.240;2023-12-07T04:20:37;2.70;99.90
13798;DHT22;6970;51.340;3.240;2023-12-07T04:23:04;2.70;99.90
13798;DHT22;6970;51.340;3.240;2023-12-07T04:25:33;2.70;99.90
13798;DHT22;6970;51.340;3.240;2023-12-07T04:28:03;2.80;99.90
13798;DHT22;6970;51.340;3.240;2023-12-07T04:30:32;2.80;99.90
13798;DHT22;6970;51.340;3.240;2023-12-07T04:33:01;2.80;99.90
13798;DHT22;6970;51.340;3.240;2023-12-07T04:35:35;2.80;99.90
13798;DHT22;6970;51.340;3.240;2023-12-07T04:38:05;2.80;99.90
13798;DHT22;6970;51.340;3.240;2023-12-07T04:40:32;2.90;99.90
13798;DHT22;6970;51.340;3.240;2023-12-07T04:43:05;2.90;99.90
13798;DHT22;6970;51.340;3.240;2023-12-07T04:45:34;2.90;99.90
13798;DHT22;6970;51.340;3.240;2023-12-07T04:48:04;2.90;99.90
13798;DHT22;6970;51.340;3.240;2023-12-07T04:50:34;2.90;99.90
13798;DHT22;6970;51.340;3.240;2023-12-07T04:53:05;2.90;99.90
13798;DHT22;6970;51.340;3.240;2023-12-07T04:55:38;2.90;99.90
13798;DHT22;6970;51.340;3.240;2023-12-07T04:58:07;2.90;99.90
13798;DHT22;6970;51.340;3.240;2023-12-07T05:00:36;2.90;99.90
13798;DHT22;6970;51.340;3.240;2023-12-07T05:03:26;2.90;99.90
13798;DHT22;6970;51.340;3.240;2023-12-07T05:05:53;2.90;99.90
13798;DHT22;6970;51.340;3.240;2023-12-07T05:08:20;3.00;99.90
13798;DHT22;6970;51.340;3.240;2023-12-07T05:10:47;2.90;99.90
13798;DHT22;6970;51.340;3.240;2023-12-07T05:13:16;2.90;99.90
13798;DHT22;6970;51.340;3.240;2023-12-07T05:15:45;2.90;99.90
13798;DHT22;6970;51.340;3.240;2023-12-07T05:18:13;2.90;99.90
13798;DHT22;6970;51.340;3.240;2023-12-07T05:20:44;2.90;99.90
13798;DHT22;6970;51.340;3.240;2023-12-07T05:23:11;2.90;99.90
13798;DHT22;6970;51.340;3.240;2023-12-07T05:25:41;2.90;99.90
13798;DHT22;6970;51.340;3.240;2023-12-07T05:28:09;3.00;99.90
13798;DHT22;6970;51.340;3.240;2023-12-07T05:30:37;2.90;99.90
13798;DHT22;6970;51.340;3.240;2023-12-07T05:33:05;2.90;99.90
13798;DHT22;6970;51.340;3.240;2023-12-07T05:35:38;2.90;99.90
13798;DHT22;6970;51.340;3.240;2023-12-07T05:38:06;2.90;99.90
13798;DHT22;6970;51.340;3.240;2023-12-07T05:40:39;2.90;99.90
13798;DHT22;6970;51.340;3.240;2023-12-07T05:43:07;2.90;99.90
13798;DHT22;6970;51.340;3.240;2023-12-07T05:45:35;2.90;99.90
13798;DHT22;6970;51.340;3.240;2023-12-07T05:48:05;3.00;99.90
13798;DHT22;6970;51.340;3.240;2023-12-07T05:50:34;3.00;99.90
13798;DHT22;6970;51.340;3.240;2023-12-07T05:53:03;3.00;99.90
13798;DHT22;6970;51.340;3.240;2023-12-07T05:55:33;3.00;99.90
13798;DHT22;6970;51.340;3.240;2023-12-07T05:58:04;3.00;99.90
13798;DHT22;6970;51.340;3.240;2023-12-07T06:00:34;3.00;99.90
13798;DHT22;6970;51.340;3.240;2023-12-07T06:03:04;3.00;99.90
13798;DHT22;6970;51.340;3.240;2023-12-07T06:05:38;3.00;99.90
13798;DHT22;6970;51.340;3.240;2023-12-07T06:08:08;3.00;99.90
13798;DHT22;6970;51.340;3.240;2023-12-07T06:10:35;3.10;99.90
13798;DHT22;6970;51.340;3.240;2023-12-07T06:13:05;3.10;99.90
13798;DHT22;6970;51.340;3.240;2023-12-07T06:15:35;3.00;99.90
13798;DHT22;6970;51.340;3.240;2023-12-07T06:18:09;3.10;99.90
13798;DHT22;6970;51.340;3.240;2023-12-07T06:20:37;3.10;99.90
13798;DHT22;6970;51.340;3.240;2023-12-07T06:23:05;3.10;99.90
13798;DHT22;6970;51.340;3.240;2023-12-07T06:25:36;3.10;99.90
13798;DHT22;6970;51.340;3.240;2023-12-07T06:28:07;3.10;99.90
13798;DHT22;6970;51.340;3.240;2023-12-07T06:30:36;3.10;99.90
13798;DHT22;6970;51.340;3.240;2023-12-07T06:33:06;3.10;99.90
13798;DHT22;6970;51.340;3.240;2023-12-07T06:35:35;3.20;99.90
13798;DHT22;6970;51.340;3.240;2023-12-07T06:38:05;3.20;99.90
13798;DHT22;6970;51.340;3.240;2023-12-07T06:40:35;3.20;99.90
13798;DHT22;6970;51.340;3.240;2023-12-07T06:43:04;3.20;99.90
13798;DHT22;6970;51.340;3.240;2023-12-07T06:45:32;3.30;99.90
13798;DHT22;6970;51.340;3.240;2023-12-07T06:48:03;3.30;99.90
13798;DHT22;6970;51.340;3.240;2023-12-07T06:50:34;3.30;99.90
13798;DHT22;6970;51.340;3.240;2023-12-07T06:53:02;3.40;99.90
13798;DHT22;6970;51.340;3.240;2023-12-07T06:55:32;3.40;99.90
13798;DHT22;6970;51.340;3.240;2023-12-07T06:58:07;3.40;99.90
13798;DHT22;6970;51.340;3.240;2023-12-07T07:00:36;3.40;99.90
13798;DHT22;6970;51.340;3.240;2023-12-07T07:03:03;3.50;99.90
13798;DHT22;6970;51.340;3.240;2023-12-07T07:05:31;3.50;99.90
13798;DHT22;6970;51.340;3.240;2023-12-07T07:07:59;3.40;99.90
13798;DHT22;6970;51.340;3.240;2023-12-07T07:10:29;3.50;99.90
13798;DHT22;6970;51.340;3.240;2023-12-07T07:13:02;3.50;99.90
13798;DHT22;6970;51.340;3.240;2023-12-07T07:15:33;3.50;99.90
13798;DHT22;6970;51.340;3.240;2023-12-07T07:18:03;3.60;99.90
13798;DHT22;6970;51.340;3.240;2023-12-07T07:20:32;3.60;99.90
13798;DHT22;6970;51.340;3.240;2023-12-07T07:23:00;3.60;99.90
13798;DHT22;6970;51.340;3.240;2023-12-07T07:25:28;3.60;99.90
13798;DHT22;6970;51.340;3.240;2023-12-07T07:27:57;3.60;99.90
13798;DHT22;6970;51.340;3.240;2023-12-07T07:30:24;3.60;99.90
13798;DHT22;6970;51.340;3.240;2023-12-07T07:32:53;3.60;99.90
13798;DHT22;6970;51.340;3.240;2023-12-07T07:35:24;3.60;99.90
13798;DHT22;6970;51.340;3.240;2023-12-07T07:37:54;3.60;99.90
13798;DHT22;6970;51.340;3.240;2023-12-07T07:40:24;3.60;99.90
13798;DHT22;6970;51.340;3.240;2023-12-07T07:43:06;3.60;99.90
13798;DHT22;6970;51.340;3.240;2023-12-07T07:45:35;3.60;99.90
13798;DHT22;6970;51.340;3.240;2023-12-07T07:48:03;3.70;99.90
13798;DHT22;6970;51.340;3.240;2023-12-07T07:50:34;3.70;99.90
13798;DHT22;6970;51.340;3.240;2023-12-07T07:53:04;3.70;99.90
13798;DHT22;6970;51.340;3.240;2023-12-07T07:55:34;3.70;99.90
13798;DHT22;6970;51.340;3.240;2023-12-07T07:58:04;3.70;99.90
13798;DHT22;6970;51.340;3.240;2023-12-07T08:00:32;3.70;99.90
13798;DHT22;6970;51.340;3.240;2023-12-07T08:03:00;3.70;99.90
13798;DHT22;6970;51.340;3.240;2023-12-07T08:05:29;3.70;99.90
13798;DHT22;6970;51.340;3.240;2023-12-07T08:07:58;3.70;99.90
13798;DHT22;6970;51.340;3.240;2023-12-07T08:10:26;3.70;99.90
13798;DHT22;6970;51.340;3.240;2023-12-07T08:12:59;3.80;99.90
13798;DHT22;6970;51.340;3.240;2023-12-07T08:15:29;3.80;99.90
13798;DHT22;6970;51.340;3.240;2023-12-07T08:17:59;3.80;99.90
13798;DHT22;6970;51.340;3.240;2023-12-07T08:20:27;3.80;99.90
13798;DHT22;6970;51.340;3.240;2023-12-07T08:22:55;3.90;99.90
13798;DHT22;6970;51.340;3.240;2023-12-07T08:25:25;3.90;99.90
13798;DHT22;6970;51.340;3.240;2023-12-07T08:27:53;3.90;99.90
13798;DHT22;6970;51.340;3.240;2023-12-07T08:30:20;3.90;99.90
13798;DHT22;6970;51.340;3.240;2023-12-07T08:32:48;4.00;99.90
13798;DHT22;6970;51.340;3.240;2023-12-07T08:35:16;4.00;99.90
13798;DHT22;6970;51.340;3.240;2023-12-07T08:37:47;4.00;99.90
13798;DHT22;6970;51.340;3.240;2023-12-07T08:40:21;4.00;99.90
13798;DHT22;6970;51.340;3.240;2023-12-07T08:42:51;4.00;99.90
13798;DHT22;6970;51.340;3.240;2023-12-07T08:45:19;4.00;99.90
13798;DHT22;6970;51.340;3.240;2023-12-07T08:47:46;4.00;99.90
13798;DHT22;6970;51.340;3.240;2023-12-07T08:50:14;4.00;99.90
13798;DHT22;6970;51.340;3.240;2023-12-07T08:52:44;4.10;99.90
13798;DHT22;6970;51.340;3.240;2023-12-07T08:55:22;4.10;99.90
13798;DHT22;6970;51.340;3.240;2023-12-07T08:57:53;4.10;99.90
13798;DHT22;6970;51.340;3.240;2023-12-07T09:00:24;4.10;99.90
13798;DHT22;6970;51.340;3.240;2023-12-07T09:02:55;4.10;99.90
13798;DHT22;6970;51.340;3.240;2023-12-07T09:05:23;4.20;99.90
13798;DHT22;6970;51.340;3.240;2023-12-07T09:07:56;4.20;99.90
13798;DHT22;6970;51.340;3.240;2023-12-07T09:10:26;4.30;99.90
13798;DHT22;6970;51.340;3.240;2023-12-07T09:12:56;4.30;99.90
13798;DHT22;6970;51.340;3.240;2023-12-07T09:15:24;4.40;99.90
13798;DHT22;6970;51.340;3.240;2023-12-07T09:17:55;4.40;99.90
13798;DHT22;6970;51.340;3.240;2023-12-07T09:20:25;4.40;99.90
13798;DHT22;6970;51.340;3.240;2023-12-07T09:22:52;4.40;99.90
13798;DHT22;6970;51.340;3.240;2023-12-07T09:25:24;4.40;99.90
13798;DHT22;6970;51.340;3.240;2023-12-07T09:27:54;4.40;99.90
13798;DHT22;6970;51.340;3.240;2023-12-07T09:30:23;4.40;99.90
13798;DHT22;6970;51.340;3.240;2023-12-07T09:32:50;4.40;99.90
13798;DHT22;6970;51.340;3.240;2023-12-07T09:35:18;4.30;99.90
13798;DHT22;6970;51.340;3.240;2023-12-07T09:37:49;4.40;99.90
13798;DHT22;6970;51.340;3.240;2023-12-07T09:40:18;4.40;99.90
13798;DHT22;6970;51.340;3.240;2023-12-07T09:42:50;4.40;99.90
13798;DHT22;6970;51.340;3.240;2023-12-07T09:45:19;4.40;99.90
13798;DHT22;6970;51.340;3.240;2023-12-07T09:47:51;4.50;99.90
13798;DHT22;6970;51.340;3.240;2023-12-07T09:50:23;4.70;99.90
13798;DHT22;6970;51.340;3.240;2023-12-07T09:52:53;4.70;99.90
13798;DHT22;6970;51.340;3.240;2023-12-07T09:55:37;4.80;99.90
13798;DHT22;6970;51.340;3.240;2023-12-07T09:58:14;5.00;99.90
13798;DHT22;6970;51.340;3.240;2023-12-07T10:00:48;5.20;99.90
13798;DHT22;6970;51.340;3.240;2023-12-07T10:03:23;5.40;99.90
13798;DHT22;6970;51.340;3.240;2023-12-07T10:05:59;5.70;99.90
13798;DHT22;6970;51.340;3.240;2023-12-07T10:08:33;5.90;99.90
13798;DHT22;6970;51.340;3.240;2023-12-07T10:11:09;6.10;99.90
13798;DHT22;6970;51.340;3.240;2023-12-07T10:13:37;6.20;99.90
13798;DHT22;6970;51.340;3.240;2023-12-07T10:16:15;6.50;99.90
13798;DHT22;6970;51.340;3.240;2023-12-07T10:18:48;6.70;99.90
13798;DHT22;6970;51.340;3.240;2023-12-07T10:21:32;6.90;99.90
13798;DHT22;6970;51.340;3.240;2023-12-07T10:24:00;7.10;99.90
13798;DHT22;6970;51.340;3.240;2023-12-07T10:26:30;7.00;99.90
13798;DHT22;6970;51.340;3.240;2023-12-07T10:29:00;6.80;99.90
13798;DHT22;6970;51.340;3.240;2023-12-07T10:31:33;6.90;99.90
13798;DHT22;6970;51.340;3.240;2023-12-07T10:34:04;6.90;99.90
13798;DHT22;6970;51.340;3.240;2023-12-07T10:36:31;6.90;99.90
13798;DHT22;6970;51.340;3.240;2023-12-07T10:39:01;6.80;99.90
13798;DHT22;6970;51.340;3.240;2023-12-07T10:41:28;6.70;99.90
13798;DHT22;6970;51.340;3.240;2023-12-07T10:44:07;6.60;99.90
13798;DHT22;6970;51.340;3.240;2023-12-07T10:46:42;6.60;99.90
13798;DHT22;6970;51.340;3.240;2023-12-07T10:49:15;6.60;99.90
13798;DHT22;6970;51.340;3.240;2023-12-07T10:52:00;6.60;99.90
13798;DHT22;6970;51.340;3.240;2023-12-07T10:54:53;6.60;99.90
13798;DHT22;6970;51.340;3.240;2023-12-07T10:57:27;6.60;99.90
13798;DHT22;6970;51.340;3.240;2023-12-07T10:59:57;6.60;99.90
13798;DHT22;6970;51.340;3.240;2023-12-07T11:02:27;6.60;99.90
13798;DHT22;6970;51.340;3.240;2023-12-07T11:04:57;6.60;99.90
13798;DHT22;6970;51.340;3.240;2023-12-07T11:07:27;6.60;99.90
13798;DHT22;6970;51.340;3.240;2023-12-07T11:10:03;6.50;99.90
13798;DHT22;6970;51.340;3.240;2023-12-07T11:12:53;6.40;99.90
13798;DHT22;6970;51.340;3.240;2023-12-07T11:15:23;6.30;99.90
13798;DHT22;6970;51.340;3.240;2023-12-07T11:18:01;6.30;99.90
13798;DHT22;6970;51.340;3.240;2023-12-07T11:23:08;6.10;99.90
13798;DHT22;6970;51.340;3.240;2023-12-07T11:25:38;6.00;99.90
13798;DHT22;6970;51.340;3.240;2023-12-07T11:28:07;6.00;99.90
13798;DHT22;6970;51.340;3.240;2023-12-07T11:30:36;6.00;99.90
13798;DHT22;6970;51.340;3.240;2023-12-07T11:33:06;5.90;99.90
13798;DHT22;6970;51.340;3.240;2023-12-07T11:38:32;5.90;99.90
13798;DHT22;6970;51.340;3.240;2023-12-07T11:40:59;5.90;99.90
13798;DHT22;6970;51.340;3.240;2023-12-07T11:43:45;5.80;99.90
13798;DHT22;6970;51.340;3.240;2023-12-07T11:46:13;5.80;99.90
13798;DHT22;6970;51.340;3.240;2023-12-07T11:48:47;5.80;99.90
13798;DHT22;6970;51.340;3.240;2023-12-07T11:51:18;5.80;99.90
13798;DHT22;6970;51.340;3.240;2023-12-07T11:53:47;5.70;99.90
13798;DHT22;6970;51.340;3.240;2023-12-07T11:56:19;5.70;99.90
13798;DHT22;6970;51.340;3.240;2023-12-07T11:58:51;5.70;99.90
13798;DHT22;6970;51.340;3.240;2023-12-07T12:01:19;5.70;99.90
13798;DHT22;6970;51.340;3.240;2023-12-07T12:03:50;5.70;99.90
13798;DHT22;6970;51.340;3.240;2023-12-07T12:06:23;5.70;99.90
13798;DHT22;6970;51.340;3.240;2023-12-07T12:08:51;5.70;99.90
13798;DHT22;6970;51.340;3.240;2023-12-07T12:11:22;5.70;99.90
13798;DHT22;6970;51.340;3.240;2023-12-07T12:13:59;5.80;99.90
13798;DHT22;6970;51.340;3.240;2023-12-07T12:16:29;5.70;99.90
13798;DHT22;6970;51.340;3.240;2023-12-07T12:18:58;5.80;99.90
13798;DHT22;6970;51.340;3.240;2023-12-07T12:21:26;5.80;99.90
13798;DHT22;6970;51.340;3.240;2023-12-07T12:23:53;5.80;99.90
13798;DHT22;6970;51.340;3.240;2023-12-07T12:26:23;5.80;99.90
13798;DHT22;6970;51.340;3.240;2023-12-07T12:28:51;5.80;99.90
13798;DHT22;6970;51.340;3.240;2023-12-07T12:31:21;5.80;99.90
13798;DHT22;6970;51.340;3.240;2023-12-07T12:33:49;5.80;99.90
13798;DHT22;6970;51.340;3.240;2023-12-07T12:36:19;5.80;99.90
13798;DHT22;6970;51.340;3.240;2023-12-07T12:38:58;5.80;99.90
13798;DHT22;6970;51.340;3.240;2023-12-07T12:41:28;5.90;99.90
13798;DHT22;6970;51.340;3.240;2023-12-07T12:43:57;5.90;99.90
13798;DHT22;6970;51.340;3.240;2023-12-07T12:46:26;5.90;99.90
13798;DHT22;6970;51.340;3.240;2023-12-07T12:48:59;5.90;99.90
13798;DHT22;6970;51.340;3.240;2023-12-07T12:51:28;5.90;99.90
13798;DHT22;6970;51.340;3.240;2023-12-07T12:53:57;5.90;99.90
13798;DHT22;6970;51.340;3.240;2023-12-07T12:56:28;5.90;99.90
13798;DHT22;6970;51.340;3.240;2023-12-07T12:58:56;6.00;99.90
13798;DHT22;6970;51.340;3.240;2023-12-07T13:01:30;6.00;99.90
13798;DHT22;6970;51.340;3.240;2023-12-07T13:04:02;6.00;99.90
13798;DHT22;6970;51.340;3.240;2023-12-07T13:06:30;6.00;99.90
13798;DHT22;6970;51.340;3.240;2023-12-07T13:09:03;6.10;99.90
13798;DHT22;6970;51.340;3.240;2023-12-07T13:11:33;6.10;99.90
13798;DHT22;6970;51.340;3.240;2023-12-07T13:14:03;6.10;99.90
13798;DHT22;6970;51.340;3.240;2023-12-07T13:16:33;6.10;99.90
13798;DHT22;6970;51.340;3.240;2023-12-07T13:19:00;6.10;99.90
13798;DHT22;6970;51.340;3.240;2023-12-07T13:21:31;6.10;99.90
13798;DHT22;6970;51.340;3.240;2023-12-07T13:23:59;6.10;99.90
13798;DHT22;6970;51.340;3.240;2023-12-07T13:26:31;6.00;99.90
13798;DHT22;6970;51.340;3.240;2023-12-07T13:28:58;6.00;99.90
13798;DHT22;6970;51.340;3.240;2023-12-07T13:31:25;6.00;99.90
13798;DHT22;6970;51.340;3.240;2023-12-07T13:33:52;6.00;99.90
13798;DHT22;6970;51.340;3.240;2023-12-07T13:36:24;6.00;99.90
13798;DHT22;6970;51.340;3.240;2023-12-07T13:38:55;6.00;99.90
13798;DHT22;6970;51.340;3.240;2023-12-07T13:41:23;6.00;99.90
13798;DHT22;6970;51.340;3.240;2023-12-07T13:43:53;6.00;99.90
13798;DHT22;6970;51.340;3.240;2023-12-07T13:46:21;6.00;99.90
13798;DHT22;6970;51.340;3.240;2023-12-07T13:48:50;6.00;99.90
13798;DHT22;6970;51.340;3.240;2023-12-07T13:51:18;6.00;99.90
13798;DHT22;6970;51.340;3.240;2023-12-07T13:53:49;6.00;99.90
13798;DHT22;6970;51.340;3.240;2023-12-07T13:56:26;6.00;99.90
13798;DHT22;6970;51.340;3.240;2023-12-07T13:58:54;5.90;99.90
13798;DHT22;6970;51.340;3.240;2023-12-07T14:01:27;5.90;99.90
13798;DHT22;6970;51.340;3.240;2023-12-07T14:03:57;5.90;99.90
13798;DHT22;6970;51.340;3.240;2023-12-07T14:06:28;5.90;99.90
13798;DHT22;6970;51.340;3.240;2023-12-07T14:08:56;5.80;99.90
13798;DHT22;6970;51.340;3.240;2023-12-07T14:11:27;5.90;99.90
13798;DHT22;6970;51.340;3.240;2023-12-07T14:13:57;5.80;99.90
13798;DHT22;6970;51.340;3.240;2023-12-07T14:16:27;5.80;99.90
13798;DHT22;6970;51.340;3.240;2023-12-07T14:19:13;5.80;99.90
13798;DHT22;6970;51.340;3.240;2023-12-07T14:21:41;5.80;99.90
13798;DHT22;6970;51.340;3.240;2023-12-07T14:24:21;5.80;99.90
13798;DHT22;6970;51.340;3.240;2023-12-07T14:26:49;5.70;99.90
13798;DHT22;6970;51.340;3.240;2023-12-07T14:29:19;5.70;99.90
13798;DHT22;6970;51.340;3.240;2023-12-07T14:31:53;5.70;99.90
13798;DHT22;6970;51.340;3.240;2023-12-07T14:34:23;5.70;99.90
13798;DHT22;6970;51.340;3.240;2023-12-07T14:37:04;5.60;99.90
13798;DHT22;6970;51.340;3.240;2023-12-07T14:39:41;5.60;99.90
13798;DHT22;6970;51.340;3.240;2023-12-07T14:42:08;5.60;99.90
13798;DHT22;6970;51.340;3.240;2023-12-07T14:44:38;5.60;99.90
13798;DHT22;6970;51.340;3.240;2023-12-07T14:47:05;5.60;99.90
13798;DHT22;6970;51.340;3.240;2023-12-07T14:49:36;5.60;99.90
13798;DHT22;6970;51.340;3.240;2023-12-07T14:52:06;5.50;99.90
13798;DHT22;6970;51.340;3.240;2023-12-07T14:54:36;5.50;99.90
13798;DHT22;6970;51.340;3.240;2023-12-07T14:57:03;5.50;99.90
13798;DHT22;6970;51.340;3.240;2023-12-07T14:59:35;5.50;99.90
13798;DHT22;6970;51.340;3.240;2023-12-07T15:02:02;5.50;99.90
13798;DHT22;6970;51.340;3.240;2023-12-07T15:04:29;5.50;99.90
13798;DHT22;6970;51.340;3.240;2023-12-07T15:07:01;5.50;99.90
13798;DHT22;6970;51.340;3.240;2023-12-07T15:09:31;5.50;99.90
13798;DHT22;6970;51.340;3.240;2023-12-07T15:11:59;5.40;99.90
13798;DHT22;6970;51.340;3.240;2023-12-07T15:14:29;5.50;99.90
13798;DHT22;6970;51.340;3.240;2023-12-07T15:17:05;5.50;99.90
13798;DHT22;6970;51.340;3.240;2023-12-07T15:19:38;5.50;99.90
13798;DHT22;6970;51.340;3.240;2023-12-07T15:22:10;5.50;99.90
13798;DHT22;6970;51.340;3.240;2023-12-07T15:24:37;5.50;99.90
13798;DHT22;6970;51.340;3.240;2023-12-07T15:27:08;5.40;99.90
13798;DHT22;6970;51.340;3.240;2023-12-07T15:29:36;5.40;99.90
13798;DHT22;6970;51.340;3.240;2023-12-07T15:32:08;5.40;99.90
13798;DHT22;6970;51.340;3.240;2023-12-07T15:34:37;5.40;99.90
13798;DHT22;6970;51.340;3.240;2023-12-07T15:37:12;5.40;99.90
13798;DHT22;6970;51.340;3.240;2023-12-07T15:39:44;5.40;99.90
13798;DHT22;6970;51.340;3.240;2023-12-07T15:42:11;5.40;99.90
13798;DHT22;6970;51.340;3.240;2023-12-07T15:44:42;5.40;99.90
13798;DHT22;6970;51.340;3.240;2023-12-07T15:47:11;5.40;99.90
13798;DHT22;6970;51.340;3.240;2023-12-07T15:49:41;5.40;99.90
13798;DHT22;6970;51.340;3.240;2023-12-07T15:52:09;5.40;99.90
13798;DHT22;6970;51.340;3.240;2023-12-07T15:54:36;5.40;99.90
13798;DHT22;6970;51.340;3.240;2023-12-07T15:57:08;5.40;99.90
13798;DHT22;6970;51.340;3.240;2023-12-07T15:59:37;5.40;99.90
13798;DHT22;6970;51.340;3.240;2023-12-07T16:02:05;5.40;99.90
13798;DHT22;6970;51.340;3.240;2023-12-07T16:04:35;5.40;99.90
13798;DHT22;6970;51.340;3.240;2023-12-07T16:07:05;5.40;99.90
13798;DHT22;6970;51.340;3.240;2023-12-07T16:09:40;5.40;99.90
13798;DHT22;6970;51.340;3.240;2023-12-07T16:12:13;5.40;99.90
13798;DHT22;6970;51.340;3.240;2023-12-07T16:14:40;5.40;99.90
13798;DHT22;6970;51.340;3.240;2023-12-07T16:17:08;5.40;99.90
13798;DHT22;6970;51.340;3.240;2023-12-07T16:19:37;5.40;99.90
13798;DHT22;6970;51.340;3.240;2023-12-07T16:22:05;5.40;99.90
13798;DHT22;6970;51.340;3.240;2023-12-07T16:24:34;5.40;99.90
13798;DHT22;6970;51.340;3.240;2023-12-07T16:27:04;5.40;99.90
13798;DHT22;6970;51.340;3.240;2023-12-07T16:29:37;5.40;99.90